createdAt,value
2018-07-13T00:00:01.851Z,14.60
2018-07-13T00:01:03.341Z,15.40
2018-07-13T00:02:01.256Z,15.30
2018-07-13T00:03:02.288Z,15.20
2018-07-13T00:04:01.313Z,16.60
2018-07-13T00:05:01.199Z,14.80
2018-07-13T00:06:18.979Z,14.50
2018-07-13T00:07:00.471Z,14.90
2018-07-13T00:08:00.491Z,14.50
2018-07-13T00:09:00.514Z,14.70
2018-07-13T00:10:01.242Z,17.90
2018-07-13T00:11:01.085Z,15.60
2018-07-13T00:12:01.300Z,17.50
2018-07-13T00:13:01.507Z,16.30
2018-07-13T00:14:01.782Z,16.50
2018-07-13T00:15:00.468Z,14.00
2018-07-13T00:16:01.756Z,15.00
2018-07-13T00:17:01.741Z,14.50
2018-07-13T00:18:01.118Z,17.10
2018-07-13T00:19:01.014Z,14.10
2018-07-13T00:20:01.034Z,16.20
2018-07-13T00:21:01.279Z,14.60
2018-07-13T00:22:01.807Z,15.90
2018-07-13T00:23:01.208Z,14.40
2018-07-13T00:24:01.428Z,14.50
2018-07-13T00:25:01.289Z,18.40
2018-07-13T00:26:01.001Z,15.50
2018-07-13T00:27:00.538Z,15.70
2018-07-13T00:28:01.601Z,16.60
2018-07-13T00:29:01.066Z,16.80
2018-07-13T00:30:01.265Z,18.60
2018-07-13T00:31:01.051Z,14.80
2018-07-13T00:32:01.034Z,16.60
2018-07-13T00:33:00.573Z,16.30
2018-07-13T00:34:01.365Z,16.40
2018-07-13T00:35:01.021Z,16.10
2018-07-13T00:36:01.733Z,16.20
2018-07-13T00:37:00.733Z,17.60
2018-07-13T00:38:01.664Z,16.60
2018-07-13T00:39:01.380Z,17.30
2018-07-13T00:40:01.771Z,15.90
2018-07-13T00:41:01.204Z,16.10
2018-07-13T00:42:00.588Z,15.70
2018-07-13T00:43:01.578Z,17.50
2018-07-13T00:44:01.943Z,17.40
2018-07-13T00:45:01.714Z,17.50
2018-07-13T00:46:02.363Z,17.20
2018-07-13T00:47:01.923Z,17.40
2018-07-13T00:48:01.690Z,17.90
2018-07-13T00:49:00.636Z,17.80
2018-07-13T00:50:00.668Z,18.50
2018-07-13T00:51:00.964Z,18.70
2018-07-13T00:52:01.584Z,18.70
2018-07-13T00:53:01.469Z,19.10
2018-07-13T00:54:01.067Z,20.80
2018-07-13T00:55:00.872Z,18.80
2018-07-13T00:56:01.453Z,18.20
2018-07-13T00:57:01.565Z,19.00
2018-07-13T00:58:00.879Z,19.20
2018-07-13T00:59:02.455Z,19.90
2018-07-13T01:00:00.768Z,19.80
2018-07-13T01:01:02.960Z,19.80
2018-07-13T01:02:00.894Z,19.70
2018-07-13T01:03:00.870Z,18.80
2018-07-13T01:04:01.313Z,20.60
2018-07-13T01:05:01.092Z,20.30
2018-07-13T01:06:01.508Z,20.70
2018-07-13T01:07:01.429Z,21.00
2018-07-13T01:08:01.889Z,21.70
2018-07-13T01:09:03.170Z,21.30
2018-07-13T01:10:01.618Z,22.00
2018-07-13T01:11:01.543Z,21.40
2018-07-13T01:12:01.557Z,21.30
2018-07-13T01:13:01.274Z,20.90
2018-07-13T01:14:01.119Z,21.20
2018-07-13T01:15:00.867Z,20.00
2018-07-13T01:16:00.879Z,21.60
2018-07-13T01:17:01.091Z,23.20
2018-07-13T01:18:01.029Z,24.20
2018-07-13T01:19:00.829Z,20.40
2018-07-13T01:20:01.295Z,22.20
2018-07-13T01:21:01.166Z,25.10
2018-07-13T01:22:00.985Z,21.20
2018-07-13T01:23:01.005Z,22.60
2018-07-13T01:24:01.305Z,22.00
2018-07-13T01:25:00.907Z,23.30
2018-07-13T01:26:01.305Z,25.00
2018-07-13T01:27:00.808Z,21.40
2018-07-13T01:28:00.890Z,22.10
2018-07-13T01:29:01.823Z,23.50
2018-07-13T01:30:01.608Z,22.60
2018-07-13T01:31:01.111Z,21.60
2018-07-13T01:32:00.996Z,22.00
2018-07-13T01:33:01.018Z,22.00
2018-07-13T01:34:01.647Z,23.00
2018-07-13T01:35:02.677Z,23.00
2018-07-13T01:36:01.028Z,23.30
2018-07-13T01:37:00.960Z,24.30
2018-07-13T01:38:00.849Z,24.20
2018-07-13T01:40:03.195Z,22.60
2018-07-13T01:41:01.647Z,21.80
2018-07-13T01:42:01.189Z,22.60
2018-07-13T01:43:01.529Z,22.50
2018-07-13T01:44:01.747Z,25.80
2018-07-13T01:45:01.036Z,23.50
2018-07-13T01:46:01.096Z,26.30
2018-07-13T01:47:01.115Z,23.30
2018-07-13T01:48:01.069Z,22.50
2018-07-13T01:49:01.608Z,22.80
2018-07-13T01:50:00.848Z,26.00
2018-07-13T01:51:01.138Z,26.10
2018-07-13T01:52:01.140Z,23.90
2018-07-13T01:53:01.418Z,25.10
2018-07-13T01:54:01.409Z,25.10
2018-07-13T01:55:01.018Z,26.30
2018-07-13T01:56:01.484Z,24.60
2018-07-13T01:57:01.440Z,24.80
2018-07-13T01:58:01.068Z,23.30
2018-07-13T01:59:01.593Z,26.20
2018-07-13T02:00:01.189Z,26.00
2018-07-13T02:01:01.142Z,24.80
2018-07-13T02:02:00.990Z,26.60
2018-07-13T02:03:00.979Z,24.20
2018-07-13T02:04:01.739Z,25.90
2018-07-13T02:05:00.882Z,25.00
2018-07-13T02:06:01.090Z,25.60
2018-07-13T02:07:01.060Z,24.10
2018-07-13T02:08:01.018Z,23.50
2018-07-13T02:09:01.047Z,25.80
2018-07-13T02:10:01.054Z,27.20
2018-07-13T02:11:01.215Z,26.50
2018-07-13T02:12:00.990Z,26.20
2018-07-13T02:13:00.785Z,27.10
2018-07-13T02:14:01.597Z,26.30
2018-07-13T02:15:00.980Z,26.50
2018-07-13T02:16:01.507Z,26.90
2018-07-13T02:17:01.119Z,27.40
2018-07-13T02:18:01.956Z,27.60
2018-07-13T02:19:01.325Z,27.60
2018-07-13T02:20:01.138Z,27.20
2018-07-13T02:21:01.722Z,27.70
2018-07-13T02:22:01.143Z,28.60
2018-07-13T02:23:01.085Z,26.90
2018-07-13T02:24:01.980Z,27.80
2018-07-13T02:25:01.297Z,30.20
2018-07-13T02:26:01.047Z,28.30
2018-07-13T02:27:00.980Z,28.30
2018-07-13T02:28:00.989Z,28.00
2018-07-13T02:29:01.314Z,28.40
2018-07-13T02:30:01.811Z,28.10
2018-07-13T02:31:01.839Z,28.70
2018-07-13T02:32:02.241Z,28.00
2018-07-13T02:33:01.099Z,27.80
2018-07-13T02:34:03.347Z,27.30
2018-07-13T02:35:01.203Z,29.80
2018-07-13T02:36:01.489Z,26.70
2018-07-13T02:37:01.639Z,33.70
2018-07-13T02:38:02.077Z,27.90
2018-07-13T02:39:01.227Z,28.70
2018-07-13T02:40:01.075Z,29.40
2018-07-13T02:41:02.288Z,29.30
2018-07-13T02:42:01.114Z,26.70
2018-07-13T02:43:01.217Z,30.00
2018-07-13T02:44:02.502Z,29.40
2018-07-13T02:45:01.072Z,29.20
2018-07-13T02:46:01.248Z,29.60
2018-07-13T02:47:01.990Z,28.00
2018-07-13T02:48:01.698Z,31.20
2018-07-13T02:49:02.053Z,31.70
2018-07-13T02:50:01.922Z,29.80
2018-07-13T02:51:03.184Z,30.00
2018-07-13T02:52:01.804Z,28.60
2018-07-13T02:53:01.279Z,28.60
2018-07-13T02:54:01.124Z,29.70
2018-07-13T02:55:02.065Z,31.00
2018-07-13T02:56:01.137Z,31.00
2018-07-13T02:57:01.184Z,32.00
2018-07-13T02:58:01.256Z,31.90
2018-07-13T02:59:01.109Z,31.40
2018-07-13T03:00:02.405Z,30.80
2018-07-13T03:01:01.093Z,32.40
2018-07-13T03:02:01.181Z,31.10
2018-07-13T03:03:02.062Z,30.00
2018-07-13T03:04:02.206Z,30.60
2018-07-13T03:05:01.374Z,32.30
2018-07-13T03:06:01.405Z,31.70
2018-07-13T03:07:01.147Z,31.30
2018-07-13T03:08:01.213Z,30.80
2018-07-13T03:09:01.230Z,31.00
2018-07-13T03:10:03.590Z,31.00
2018-07-13T03:11:01.869Z,33.20
2018-07-13T03:12:01.858Z,33.70
2018-07-13T03:13:01.067Z,31.90
2018-07-13T03:14:02.204Z,31.90
2018-07-13T03:15:01.887Z,35.10
2018-07-13T03:16:01.821Z,34.40
2018-07-13T03:17:03.239Z,33.60
2018-07-13T03:18:01.234Z,35.30
2018-07-13T03:19:01.374Z,34.70
2018-07-13T03:20:01.198Z,36.00
2018-07-13T03:21:01.194Z,35.20
2018-07-13T03:22:01.229Z,33.70
2018-07-13T03:23:03.526Z,34.40
2018-07-13T03:24:01.246Z,33.80
2018-07-13T03:25:01.155Z,33.00
2018-07-13T03:26:01.347Z,34.20
2018-07-13T03:27:02.365Z,32.90
2018-07-13T03:28:01.261Z,33.10
2018-07-13T03:29:01.477Z,34.40
2018-07-13T03:30:01.519Z,34.20
2018-07-13T03:31:01.391Z,33.60
2018-07-13T03:32:02.104Z,34.20
2018-07-13T03:33:01.407Z,33.50
2018-07-13T03:34:01.339Z,34.70
2018-07-13T03:35:01.485Z,35.20
2018-07-13T03:36:01.430Z,34.50
2018-07-13T03:37:01.248Z,34.10
2018-07-13T03:38:01.575Z,34.60
2018-07-13T03:39:02.138Z,34.10
2018-07-13T03:40:02.733Z,31.80
2018-07-13T03:41:01.371Z,34.90
2018-07-13T03:42:01.367Z,33.10
2018-07-13T03:43:01.872Z,32.20
2018-07-13T03:44:03.140Z,33.90
2018-07-13T03:45:01.247Z,35.30
2018-07-13T03:46:01.305Z,35.20
2018-07-13T03:47:01.634Z,34.20
2018-07-13T03:48:01.103Z,36.40
2018-07-13T03:49:01.494Z,33.90
2018-07-13T03:50:02.403Z,34.90
2018-07-13T03:51:01.338Z,34.00
2018-07-13T03:52:01.423Z,34.60
2018-07-13T03:53:01.627Z,35.30
2018-07-13T03:54:01.382Z,34.60
2018-07-13T03:55:01.496Z,35.80
2018-07-13T03:56:01.410Z,34.70
2018-07-13T03:57:01.533Z,35.80
2018-07-13T03:58:01.584Z,33.90
2018-07-13T03:59:02.355Z,34.90
2018-07-13T04:00:01.217Z,33.50
2018-07-13T04:01:01.350Z,33.40
2018-07-13T04:02:01.450Z,34.80
2018-07-13T04:03:02.462Z,35.00
2018-07-13T04:04:03.550Z,31.90
2018-07-13T04:05:02.123Z,33.80
2018-07-13T04:06:01.598Z,33.30
2018-07-13T04:07:01.347Z,32.90
2018-07-13T04:08:01.370Z,32.90
2018-07-13T04:09:01.477Z,34.60
2018-07-13T04:10:01.836Z,34.40
2018-07-13T04:11:02.047Z,35.60
2018-07-13T04:12:01.211Z,33.80
2018-07-13T04:13:01.189Z,32.40
2018-07-13T04:14:01.352Z,32.10
2018-07-13T04:15:01.511Z,32.90
2018-07-13T04:16:01.370Z,34.10
2018-07-13T04:17:02.468Z,32.90
2018-07-13T04:18:01.528Z,34.10
2018-07-13T04:19:01.414Z,32.70
2018-07-13T04:20:01.359Z,32.10
2018-07-13T04:21:01.390Z,32.10
2018-07-13T04:22:01.900Z,32.80
2018-07-13T04:23:01.346Z,31.50
2018-07-13T04:24:01.410Z,30.40
2018-07-13T04:25:01.244Z,29.00
2018-07-13T04:26:01.459Z,30.30
2018-07-13T04:27:02.003Z,30.10
2018-07-13T04:28:01.342Z,29.10
2018-07-13T04:29:01.432Z,30.80
2018-07-13T04:30:01.439Z,30.70
2018-07-13T04:31:01.355Z,30.40
2018-07-13T04:32:01.385Z,29.40
2018-07-13T04:33:01.330Z,30.50
2018-07-13T04:34:01.424Z,29.40
2018-07-13T04:35:01.344Z,29.10
2018-07-13T04:36:01.855Z,29.40
2018-07-13T04:37:01.284Z,29.60
2018-07-13T04:38:01.208Z,28.70
2018-07-13T04:39:01.439Z,27.90
2018-07-13T04:40:01.223Z,28.50
2018-07-13T04:41:02.011Z,28.40
2018-07-13T04:42:01.567Z,27.80
2018-07-13T04:43:01.468Z,27.90
2018-07-13T04:44:01.333Z,28.10
2018-07-13T04:45:01.412Z,26.60
2018-07-13T04:46:01.366Z,26.60
2018-07-13T04:47:01.279Z,27.40
2018-07-13T04:48:01.415Z,25.90
2018-07-13T04:49:01.528Z,26.50
2018-07-13T04:50:01.467Z,27.00
2018-07-13T04:51:01.660Z,26.80
2018-07-13T04:52:02.357Z,25.80
2018-07-13T04:53:01.918Z,26.10
2018-07-13T04:54:02.333Z,25.50
2018-07-13T04:55:01.674Z,25.50
2018-07-13T04:56:01.427Z,28.00
2018-07-13T04:57:01.503Z,25.50
2018-07-13T04:58:01.606Z,27.00
2018-07-13T04:59:01.651Z,25.90
2018-07-13T05:00:01.590Z,25.80
2018-07-13T05:01:01.312Z,23.80
2018-07-13T05:02:03.260Z,25.30
2018-07-13T05:03:02.256Z,25.30
2018-07-13T05:04:01.978Z,25.20
2018-07-13T05:05:01.804Z,26.20
2018-07-13T05:06:02.156Z,28.10
2018-07-13T05:07:01.583Z,26.10
2018-07-13T05:08:01.468Z,25.90
2018-07-13T05:09:01.682Z,24.60
2018-07-13T05:10:01.590Z,23.40
2018-07-13T05:11:01.438Z,28.00
2018-07-13T05:12:02.085Z,24.70
2018-07-13T05:13:01.704Z,23.90
2018-07-13T05:14:02.161Z,24.30
2018-07-13T05:15:02.603Z,23.00
2018-07-13T05:16:01.449Z,24.80
2018-07-13T05:17:02.330Z,23.40
2018-07-13T05:18:01.798Z,23.90
2018-07-13T05:19:01.650Z,23.00
2018-07-13T05:20:01.765Z,25.00
2018-07-13T05:21:01.758Z,24.60
2018-07-13T05:22:01.391Z,24.40
2018-07-13T05:23:01.298Z,23.80
2018-07-13T05:24:01.585Z,25.30
2018-07-13T05:25:01.416Z,24.30
2018-07-13T05:26:01.876Z,24.50
2018-07-13T05:27:01.612Z,23.10
2018-07-13T05:28:01.605Z,24.90
2018-07-13T05:29:01.490Z,24.00
2018-07-13T05:30:01.999Z,23.40
2018-07-13T05:31:02.001Z,22.90
2018-07-13T05:32:01.510Z,24.10
2018-07-13T05:33:01.913Z,25.70
2018-07-13T05:34:01.690Z,26.30
2018-07-13T05:35:01.390Z,27.10
2018-07-13T05:36:01.661Z,25.10
2018-07-13T05:37:01.653Z,26.30
2018-07-13T05:38:01.546Z,27.50
2018-07-13T05:39:01.627Z,25.40
2018-07-13T05:40:02.113Z,26.40
2018-07-13T05:41:01.557Z,28.60
2018-07-13T05:42:01.933Z,26.60
2018-07-13T05:43:01.876Z,28.30
2018-07-13T05:44:01.539Z,31.80
2018-07-13T05:45:01.586Z,28.50
2018-07-13T05:46:01.635Z,25.70
2018-07-13T05:47:01.613Z,27.40
2018-07-13T05:48:01.901Z,28.10
2018-07-13T05:49:01.544Z,27.60
2018-07-13T05:50:01.484Z,29.60
2018-07-13T05:51:01.577Z,30.90
2018-07-13T05:52:01.650Z,28.50
2018-07-13T05:53:01.643Z,30.40
2018-07-13T05:54:01.918Z,29.90
2018-07-13T05:55:01.585Z,30.90
2018-07-13T05:56:01.600Z,30.40
2018-07-13T05:57:01.769Z,30.40
2018-07-13T05:58:04.453Z,32.70
2018-07-13T05:59:01.451Z,29.30
2018-07-13T06:00:01.908Z,30.20
2018-07-13T06:01:02.680Z,26.50
2018-07-13T06:02:01.978Z,30.50
2018-07-13T06:03:02.260Z,27.20
2018-07-13T06:04:02.199Z,33.20
2018-07-13T06:05:02.464Z,26.10
2018-07-13T06:06:01.779Z,23.90
2018-07-13T06:07:01.677Z,25.70
2018-07-13T06:08:02.571Z,24.70
2018-07-13T06:09:01.510Z,24.50
2018-07-13T06:11:02.013Z,24.70
2018-07-13T06:12:01.454Z,24.70
2018-07-13T06:13:01.689Z,25.30
2018-07-13T06:14:01.924Z,23.90
2018-07-13T06:15:01.687Z,24.20
2018-07-13T06:16:01.819Z,24.50
2018-07-13T06:17:02.414Z,24.90
2018-07-13T06:20:34.757Z,23.90
2018-07-13T06:21:34.418Z,22.60
2018-07-13T06:22:34.324Z,23.20
2018-07-13T06:23:34.321Z,22.10
2018-07-13T06:24:34.427Z,22.50
2018-07-13T06:25:35.463Z,23.10
2018-07-13T06:26:34.753Z,21.10
2018-07-13T06:27:34.324Z,27.30
2018-07-13T06:28:34.282Z,21.60
2018-07-13T06:29:34.322Z,24.10
2018-07-13T06:30:34.303Z,21.30
2018-07-13T06:31:34.316Z,20.30
2018-07-13T06:32:34.298Z,20.60
2018-07-13T06:33:34.961Z,20.70
2018-07-13T06:34:34.342Z,23.20
2018-07-13T06:35:34.393Z,23.10
2018-07-13T06:36:34.298Z,21.10
2018-07-13T06:37:34.315Z,20.70
2018-07-13T06:38:34.298Z,22.10
2018-07-13T06:39:34.395Z,21.40
2018-07-13T06:40:34.313Z,21.50
2018-07-13T06:41:34.321Z,20.40
2018-07-13T06:42:34.377Z,19.60
2018-07-13T06:43:34.309Z,20.50
2018-07-13T06:44:34.328Z,19.50
2018-07-13T06:45:34.364Z,20.00
2018-07-13T06:46:34.423Z,18.20
2018-07-13T06:47:34.401Z,18.90
2018-07-13T06:48:34.368Z,18.80
2018-07-13T06:49:34.427Z,18.60
2018-07-13T06:50:34.393Z,17.60
2018-07-13T06:51:34.351Z,18.40
2018-07-13T06:52:34.340Z,18.10
2018-07-13T06:53:34.387Z,19.70
2018-07-13T06:54:34.396Z,18.20
2018-07-13T06:55:34.432Z,17.30
2018-07-13T06:56:34.372Z,19.60
2018-07-13T06:57:34.369Z,17.20
2018-07-13T06:58:34.342Z,18.10
2018-07-13T06:59:34.391Z,18.30
2018-07-13T07:00:34.434Z,18.30
2018-07-13T07:01:34.376Z,18.80
2018-07-13T07:02:34.416Z,19.20
2018-07-13T07:03:34.389Z,17.40
2018-07-13T07:04:34.399Z,18.70
2018-07-13T07:05:34.361Z,18.70
2018-07-13T07:06:34.413Z,18.20
2018-07-13T07:07:34.471Z,18.80
2018-07-13T07:08:36.951Z,19.90
2018-07-13T07:09:51.601Z,19.90
2018-07-13T07:12:36.886Z,21.40
2018-07-13T07:13:37.181Z,22.60
2018-07-13T07:14:38.818Z,34.80
2018-07-13T07:15:35.653Z,21.70
2018-07-13T07:16:35.345Z,18.90
2018-07-13T07:17:38.413Z,20.40
2018-07-13T07:18:36.276Z,20.60
2018-07-13T07:24:20.124Z,22.70
2018-07-13T07:25:19.539Z,20.60
2018-07-13T07:26:19.337Z,19.80
2018-07-13T07:27:21.069Z,20.90
2018-07-13T07:28:20.671Z,21.20
2018-07-13T07:29:19.776Z,20.20
2018-07-13T07:30:19.820Z,20.90
2018-07-13T07:31:19.682Z,19.30
2018-07-13T07:32:20.014Z,19.80
2018-07-13T07:33:19.183Z,21.00
2018-07-13T07:34:19.801Z,21.00
2018-07-13T07:35:19.107Z,19.10
2018-07-13T07:36:19.155Z,19.10
2018-07-13T07:37:19.135Z,19.60
2018-07-13T07:38:19.201Z,18.30
2018-07-13T07:39:19.083Z,19.20
2018-07-13T07:40:19.093Z,17.20
2018-07-13T07:41:19.190Z,19.10
2018-07-13T07:42:19.127Z,17.60
2018-07-13T07:43:19.157Z,18.00
2018-07-13T07:44:19.088Z,16.50
2018-07-13T07:45:19.673Z,16.60
2018-07-13T07:46:19.230Z,17.60
2018-07-13T07:47:19.076Z,18.50
2018-07-13T07:48:19.178Z,14.70
2018-07-13T07:49:19.071Z,13.80
2018-07-13T07:50:19.102Z,14.00
2018-07-13T07:51:19.128Z,14.20
2018-07-13T07:52:19.306Z,13.10
2018-07-13T07:53:19.115Z,16.20
2018-07-13T07:54:19.221Z,15.60
2018-07-13T07:55:19.131Z,16.30
2018-07-13T07:56:19.120Z,12.00
2018-07-13T07:57:19.132Z,13.40
2018-07-13T07:58:19.138Z,12.80
2018-07-13T07:59:19.784Z,12.00
2018-07-13T08:00:19.142Z,13.20
2018-07-13T08:01:19.123Z,13.20
2018-07-13T08:02:19.130Z,13.20
2018-07-13T08:03:19.169Z,13.00
2018-07-13T08:04:19.892Z,13.70
2018-07-13T08:05:19.477Z,14.60
2018-07-13T08:06:19.336Z,13.90
2018-07-13T08:07:19.386Z,12.70
2018-07-13T08:08:19.199Z,12.00
2018-07-13T08:09:19.191Z,11.90
2018-07-13T08:10:19.202Z,12.10
2018-07-13T08:11:19.224Z,10.10
2018-07-13T08:12:19.221Z,10.10
2018-07-13T08:13:19.230Z,12.90
2018-07-13T08:14:19.393Z,11.50
2018-07-13T08:15:20.189Z,11.70
2018-07-13T08:16:19.324Z,10.90
2018-07-13T08:17:19.325Z,12.40
2018-07-13T08:18:19.396Z,12.10
2018-07-13T08:19:19.316Z,10.50
2018-07-13T08:20:19.309Z,13.40
2018-07-13T08:21:19.344Z,10.10
2018-07-13T08:22:19.338Z,11.60
2018-07-13T08:23:19.370Z,10.70
2018-07-13T08:24:19.367Z,9.80
2018-07-13T08:25:19.419Z,11.00
2018-07-13T08:26:19.415Z,10.50
2018-07-13T08:27:19.425Z,10.60
2018-07-13T08:28:19.427Z,9.40
2018-07-13T08:29:19.458Z,10.40
2018-07-13T08:30:19.451Z,12.30
2018-07-13T08:31:19.620Z,12.20
2018-07-13T08:32:19.500Z,9.20
2018-07-13T08:33:19.539Z,10.40
2018-07-13T08:34:19.544Z,9.90
2018-07-13T08:35:19.586Z,11.60
2018-07-13T08:36:19.550Z,11.50
2018-07-13T08:37:19.622Z,10.90
2018-07-13T08:38:19.867Z,10.80
2018-07-13T08:39:20.244Z,10.80
2018-07-13T08:40:19.737Z,9.50
2018-07-13T08:41:19.666Z,9.80
2018-07-13T08:42:19.626Z,9.00
2018-07-13T08:43:19.659Z,11.50
2018-07-13T08:44:19.712Z,8.90
2018-07-13T08:45:20.024Z,10.00
2018-07-13T08:46:20.776Z,10.60
2018-07-13T08:47:19.758Z,10.10
2018-07-13T08:48:19.750Z,10.20
2018-07-13T08:49:19.845Z,10.50
2018-07-13T08:50:19.857Z,11.70
2018-07-13T08:51:19.786Z,14.30
2018-07-13T08:52:19.917Z,8.10
2018-07-13T08:53:19.847Z,8.40
2018-07-13T08:54:19.949Z,12.30
2018-07-13T08:55:19.887Z,11.80
2018-07-13T08:56:19.933Z,8.70
2018-07-13T08:57:21.823Z,8.90
2018-07-13T08:58:19.900Z,10.10
2018-07-13T08:59:19.940Z,9.80
2018-07-13T09:00:19.930Z,10.50
2018-07-13T09:01:20.064Z,8.90
2018-07-13T09:02:20.011Z,10.90
2018-07-13T09:03:20.058Z,9.20
2018-07-13T09:04:20.072Z,10.40
2018-07-13T09:05:20.092Z,9.90
2018-07-13T09:06:20.048Z,12.30
2018-07-13T09:07:20.079Z,9.60
2018-07-13T09:08:20.075Z,10.50
2018-07-13T09:09:20.081Z,8.50
2018-07-13T09:10:20.101Z,9.90
2018-07-13T09:11:20.122Z,9.90
2018-07-13T09:12:20.219Z,8.90
2018-07-13T09:13:20.198Z,10.20
2018-07-13T09:14:20.329Z,8.10
2018-07-13T09:15:20.270Z,7.90
2018-07-13T09:16:20.293Z,8.80
2018-07-13T09:17:20.229Z,8.70
2018-07-13T09:18:20.366Z,9.50
2018-07-13T09:19:20.306Z,9.20
2018-07-13T09:20:21.268Z,8.90
2018-07-13T09:21:20.312Z,10.20
2018-07-13T09:22:20.396Z,8.50
2018-07-13T09:23:20.364Z,9.30
2018-07-13T09:24:20.500Z,6.80
2018-07-13T09:25:20.467Z,11.90
2018-07-13T09:26:20.405Z,9.50
2018-07-13T09:27:20.432Z,9.50
2018-07-13T09:28:20.443Z,8.80
2018-07-13T09:29:20.462Z,8.90
2018-07-13T09:30:20.476Z,8.80
2018-07-13T09:31:20.577Z,9.60
2018-07-13T09:32:20.624Z,10.40
2018-07-13T09:33:20.582Z,11.50
2018-07-13T09:34:20.622Z,9.80
2018-07-13T09:35:20.674Z,8.90
2018-07-13T09:36:20.649Z,10.20
2018-07-13T09:37:20.665Z,8.80
2018-07-13T09:38:21.286Z,9.00
2018-07-13T09:39:20.685Z,8.10
2018-07-13T09:40:20.701Z,9.10
2018-07-13T09:41:20.724Z,8.60
2018-07-13T09:42:21.769Z,8.60
2018-07-13T09:43:23.394Z,9.20
2018-07-13T09:44:20.961Z,7.90
2018-07-13T09:45:20.926Z,8.60
2018-07-13T09:46:21.072Z,6.30
2018-07-13T09:47:23.384Z,8.90
2018-07-13T09:48:20.854Z,10.20
2018-07-13T09:49:20.891Z,8.90
2018-07-13T09:50:20.938Z,9.80
2018-07-13T09:51:21.892Z,9.90
2018-07-13T09:52:21.085Z,7.50
2018-07-13T09:53:21.031Z,6.20
2018-07-13T09:54:20.982Z,8.00
2018-07-13T09:55:20.990Z,8.00
2018-07-13T09:56:21.043Z,7.50
2018-07-13T09:57:21.761Z,7.50
2018-07-13T09:58:21.111Z,7.40
2018-07-13T09:59:21.105Z,7.70
2018-07-13T10:00:21.127Z,6.00
2018-07-13T10:01:21.167Z,6.10
2018-07-13T10:02:21.139Z,9.30
2018-07-13T10:03:21.237Z,7.50
2018-07-13T10:04:21.305Z,7.40
2018-07-13T10:05:21.225Z,8.10
2018-07-13T10:06:21.218Z,8.10
2018-07-13T10:07:21.451Z,6.20
2018-07-13T10:08:21.307Z,7.90
2018-07-13T10:09:21.305Z,5.90
2018-07-13T10:10:21.306Z,10.00
2018-07-13T10:11:21.338Z,7.30
2018-07-13T10:12:21.419Z,8.30
2018-07-13T10:13:21.427Z,7.00
2018-07-13T10:14:22.412Z,6.00
2018-07-13T10:15:21.486Z,6.90
2018-07-13T10:16:21.501Z,8.10
2018-07-13T10:17:21.542Z,6.40
2018-07-13T10:18:21.580Z,6.80
2018-07-13T10:19:21.572Z,7.70
2018-07-13T10:20:21.584Z,6.40
2018-07-13T10:21:21.595Z,5.90
2018-07-13T10:22:21.574Z,6.20
2018-07-13T10:23:21.619Z,6.80
2018-07-13T10:24:22.307Z,8.50
2018-07-13T10:25:21.654Z,8.90
2018-07-13T10:26:21.706Z,7.20
2018-07-13T10:27:21.779Z,7.40
2018-07-13T10:28:21.742Z,7.20
2018-07-13T10:29:21.756Z,7.10
2018-07-13T10:30:22.650Z,9.30
2018-07-13T10:31:21.881Z,9.20
2018-07-13T10:32:21.803Z,7.80
2018-07-13T10:33:21.885Z,7.00
2018-07-13T10:34:21.919Z,8.80
2018-07-13T10:35:21.904Z,8.00
2018-07-13T10:36:22.007Z,9.40
2018-07-13T10:37:21.944Z,9.70
2018-07-13T10:38:21.914Z,8.50
2018-07-13T10:39:21.962Z,6.80
2018-07-13T10:40:21.952Z,7.00
2018-07-13T10:41:21.977Z,8.90
2018-07-13T10:42:22.019Z,9.10
2018-07-13T10:43:22.086Z,8.40
2018-07-13T10:44:22.033Z,6.10
2018-07-13T10:45:22.168Z,7.80
2018-07-13T10:46:22.076Z,8.20
2018-07-13T10:47:22.102Z,8.80
2018-07-13T10:48:22.138Z,8.00
2018-07-13T10:49:22.797Z,9.30
2018-07-13T10:50:22.198Z,9.50
2018-07-13T10:51:22.174Z,9.40
2018-07-13T10:52:22.234Z,8.10
2018-07-13T10:53:22.254Z,8.40
2018-07-13T10:54:22.235Z,7.00
2018-07-13T10:55:22.316Z,7.40
2018-07-13T10:56:22.257Z,10.40
2018-07-13T10:57:22.278Z,8.30
2018-07-13T10:58:22.293Z,7.50
2018-07-13T10:59:22.797Z,8.00
2018-07-13T11:00:22.350Z,9.40
2018-07-13T11:01:22.347Z,8.70
2018-07-13T11:02:22.346Z,6.90
2018-07-13T11:03:22.370Z,8.10
2018-07-13T11:04:22.407Z,8.50
2018-07-13T11:05:22.439Z,7.60
2018-07-13T11:06:22.415Z,6.80
2018-07-13T11:07:22.515Z,7.30
2018-07-13T11:08:22.481Z,7.40
2018-07-13T11:09:23.304Z,7.20
2018-07-13T11:10:22.468Z,8.80
2018-07-13T11:11:22.456Z,9.70
2018-07-13T11:12:22.526Z,9.00
2018-07-13T11:13:22.494Z,8.70
2018-07-13T11:14:22.497Z,10.20
2018-07-13T11:15:23.440Z,8.00
2018-07-13T11:16:22.542Z,8.70
2018-07-13T11:17:22.549Z,7.70
2018-07-13T11:18:22.545Z,13.20
2018-07-13T11:19:23.317Z,6.20
2018-07-13T11:20:22.582Z,8.30
2018-07-13T11:21:22.626Z,6.30
2018-07-13T11:22:22.712Z,8.70
2018-07-13T11:23:22.664Z,9.70
2018-07-13T11:24:22.700Z,10.80
2018-07-13T11:25:22.611Z,7.70
2018-07-13T11:26:22.899Z,8.60
2018-07-13T11:27:22.757Z,9.30
2018-07-13T11:28:22.762Z,8.40
2018-07-13T11:29:22.923Z,8.80
2018-07-13T11:30:22.706Z,8.60
2018-07-13T11:31:22.761Z,8.00
2018-07-13T11:32:22.840Z,8.30
2018-07-13T11:33:22.742Z,8.80
2018-07-13T11:34:22.784Z,8.90
2018-07-13T11:35:22.815Z,11.40
2018-07-13T11:36:22.776Z,7.40
2018-07-13T11:38:38.361Z,6.00
2018-07-13T11:39:23.837Z,12.10
2018-07-13T11:40:22.849Z,7.50
2018-07-13T11:41:23.342Z,5.80
2018-07-13T11:42:30.344Z,6.30
2018-07-13T11:43:22.835Z,6.30
2018-07-13T11:44:43.906Z,7.20
2018-07-13T11:45:22.893Z,7.50
2018-07-13T11:46:22.844Z,7.60
2018-07-13T11:47:22.902Z,8.10
2018-07-13T11:48:22.906Z,10.70
2018-07-13T11:49:22.936Z,9.60
2018-07-13T11:50:43.917Z,8.70
2018-07-13T11:51:22.886Z,7.30
2018-07-13T11:52:22.923Z,7.10
2018-07-13T11:53:23.104Z,7.60
2018-07-13T11:54:24.968Z,7.10
2018-07-13T11:55:23.015Z,6.60
2018-07-13T11:56:43.971Z,8.00
2018-07-13T11:57:23.036Z,8.70
2018-07-13T11:58:24.351Z,8.20
2018-07-13T11:59:23.013Z,7.80
2018-07-13T12:00:23.020Z,6.40
2018-07-13T12:01:23.843Z,7.30
2018-07-13T12:02:45.147Z,8.80
2018-07-13T12:03:23.065Z,8.00
2018-07-13T12:04:23.848Z,8.20
2018-07-13T12:05:23.052Z,7.00
2018-07-13T12:06:23.005Z,7.30
2018-07-13T12:07:25.249Z,8.40
2018-07-13T12:08:44.064Z,5.80
2018-07-13T12:09:23.065Z,9.00
2018-07-13T12:10:23.140Z,8.90
2018-07-13T12:12:23.107Z,6.40
2018-07-13T12:13:23.106Z,7.10
2018-07-13T12:14:44.114Z,6.70
2018-07-13T12:15:23.972Z,7.60
2018-07-13T12:16:23.097Z,6.00
2018-07-13T12:17:23.196Z,7.00
2018-07-13T12:18:23.110Z,7.10
2018-07-13T12:19:23.094Z,9.60
2018-07-13T12:20:44.124Z,8.60
2018-07-13T12:21:23.132Z,6.80
2018-07-13T12:22:23.148Z,6.60
2018-07-13T12:25:33.925Z,8.50
2018-07-13T12:26:32.125Z,6.90
2018-07-13T12:27:32.161Z,6.60
2018-07-13T12:28:32.165Z,8.00
2018-07-13T12:29:33.007Z,6.50
2018-07-13T12:30:35.750Z,6.80
2018-07-13T12:31:32.083Z,7.80
2018-07-13T12:32:32.176Z,7.90
2018-07-13T12:33:32.122Z,7.20
2018-07-13T12:34:32.150Z,6.90
2018-07-13T12:35:32.082Z,9.00
2018-07-13T12:36:32.137Z,6.10
2018-07-13T12:37:32.119Z,6.40
2018-07-13T12:38:32.091Z,8.40
2018-07-13T12:39:32.152Z,7.40
2018-07-13T12:40:32.120Z,5.80
2018-07-13T12:41:32.105Z,7.60
2018-07-13T12:42:32.113Z,9.80
2018-07-13T12:43:32.132Z,12.80
2018-07-13T12:44:32.140Z,9.90
2018-07-13T12:45:32.138Z,11.30
2018-07-13T12:46:32.135Z,7.80
2018-07-13T12:47:32.156Z,7.60
2018-07-13T12:48:32.219Z,7.90
2018-07-13T12:49:32.167Z,8.00
2018-07-13T12:50:32.172Z,6.00
2018-07-13T12:51:32.213Z,6.20
2018-07-13T12:52:32.195Z,6.70
2018-07-13T12:53:32.225Z,7.40
2018-07-13T12:54:32.300Z,7.90
2018-07-13T12:55:32.237Z,6.70
2018-07-13T13:05:52.737Z,7.10
2018-07-13T13:08:43.171Z,8.00
2018-07-13T13:09:42.853Z,7.10
2018-07-13T13:10:42.417Z,7.00
2018-07-13T13:11:41.980Z,6.60
2018-07-13T13:12:42.694Z,8.30
2018-07-13T13:13:42.069Z,6.60
2018-07-13T13:14:42.226Z,10.40
2018-07-13T13:15:42.458Z,5.50
2018-07-13T13:16:42.062Z,9.50
2018-07-13T13:17:41.989Z,6.50
2018-07-13T13:18:41.996Z,9.70
2018-07-13T13:19:42.060Z,8.80
2018-07-13T13:20:42.025Z,7.10
2018-07-13T13:21:42.078Z,6.40
2018-07-13T13:22:42.147Z,6.30
2018-07-13T13:23:42.054Z,6.80
2018-07-13T13:24:42.215Z,7.80
2018-07-13T13:25:42.141Z,6.20
2018-07-13T13:26:42.102Z,6.40